createdAt,value
2019-02-26T00:01:14.423Z,97781.25
2019-02-26T00:06:38.256Z,97798.20
2019-02-26T00:09:22.614Z,97795.08
2019-02-26T00:11:53.169Z,97786.66
2019-02-26T00:14:24.870Z,97794.88
2019-02-26T00:17:40.538Z,97794.38
2019-02-26T00:20:19.553Z,97801.58
2019-02-26T00:23:09.125Z,97798.27
2019-02-26T00:25:59.190Z,97796.44
2019-02-26T00:31:28.166Z,97794.94
2019-02-26T00:34:05.829Z,97792.11
2019-02-26T00:36:41.971Z,97798.88
2019-02-26T00:39:12.590Z,97807.45
2019-02-26T00:48:01.052Z,97796.67
2019-02-26T00:50:37.923Z,97795.17
2019-02-26T00:56:18.106Z,97790.73
2019-02-26T00:59:09.320Z,97795.62
2019-02-26T01:01:57.688Z,97790.98
2019-02-26T01:08:03.571Z,97773.60
2019-02-26T01:10:34.581Z,97761.47
2019-02-26T01:13:15.919Z,97756.20
2019-02-26T01:16:05.531Z,97763.27
2019-02-26T01:19:08.524Z,97761.47
2019-02-26T01:21:38.833Z,97759.66
2019-02-26T01:24:23.528Z,97763.27
2019-02-26T01:26:53.878Z,97758.80
2019-02-26T01:29:25.876Z,97744.52
2019-02-26T01:32:02.484Z,97751.28
2019-02-26T01:34:34.970Z,97755.72
2019-02-26T01:39:59.026Z,97738.27
2019-02-26T01:42:31.592Z,97743.23
2019-02-26T01:45:08.245Z,97737.63
2019-02-26T01:47:58.759Z,97736.63
2019-02-26T01:50:30.867Z,97742.86
2019-02-26T01:53:21.542Z,97737.59
2019-02-26T01:56:04.717Z,97736.47
2019-02-26T02:01:42.009Z,97727.38
2019-02-26T02:04:17.175Z,97734.13
2019-02-26T02:09:46.536Z,97742.67
2019-02-26T02:12:36.869Z,97750.70
2019-02-26T02:15:14.937Z,97746.91
2019-02-26T02:17:50.338Z,97738.88
2019-02-26T02:20:22.203Z,97729.55
2019-02-26T02:22:52.808Z,97718.20
2019-02-26T02:25:43.331Z,97717.93
2019-02-26T02:28:43.139Z,97717.59
2019-02-26T02:31:34.821Z,97702.30
2019-02-26T02:34:10.743Z,97708.91
2019-02-26T02:36:41.334Z,97703.36
2019-02-26T02:39:42.880Z,97705.99
2019-02-26T02:42:16.403Z,97705.84
2019-02-26T02:45:24.694Z,97696.94
2019-02-26T02:48:00.323Z,97701.41
2019-02-26T02:50:48.005Z,97691.54
2019-02-26T02:53:32.339Z,97693.52
2019-02-26T02:56:15.352Z,97697.81
2019-02-26T02:58:48.814Z,97696.19
2019-02-26T03:01:25.827Z,97692.70
2019-02-26T03:04:19.661Z,97685.48
2019-02-26T03:09:49.554Z,97685.29
2019-02-26T03:12:31.750Z,97684.80
2019-02-26T03:15:07.457Z,97677.88
2019-02-26T03:17:56.205Z,97683.83
2019-02-26T03:20:40.306Z,97680.36
2019-02-26T03:23:15.772Z,97679.53
2019-02-26T03:25:52.955Z,97686.13
2019-02-26T03:31:14.733Z,97695.98
2019-02-26T03:36:40.826Z,97690.51
2019-02-26T03:39:30.728Z,97694.45
2019-02-26T03:42:01.330Z,97694.13
2019-02-26T03:45:10.088Z,97691.16
2019-02-26T03:47:41.033Z,97683.10
2019-02-26T03:50:13.720Z,97670.09
2019-02-26T03:53:03.624Z,97668.94
2019-02-26T03:55:36.221Z,97666.13
2019-02-26T03:58:25.509Z,97672.20
2019-02-26T04:01:08.443Z,97684.84
2019-02-26T04:06:49.296Z,97675.00
2019-02-26T04:09:21.964Z,97680.91
2019-02-26T04:11:57.755Z,97686.16
2019-02-26T04:14:55.551Z,97686.50
2019-02-26T04:17:28.610Z,97678.11
2019-02-26T04:23:21.898Z,97675.45
2019-02-26T04:26:49.723Z,97673.80
2019-02-26T04:30:08.303Z,97679.37
2019-02-26T04:33:14.051Z,97673.59
2019-02-26T04:36:11.150Z,97661.75
2019-02-26T04:39:25.322Z,97660.47
2019-02-26T04:42:03.309Z,97656.55
2019-02-26T04:45:18.586Z,97670.86
2019-02-26T04:47:51.855Z,97671.17
2019-02-26T04:50:41.485Z,97667.07
2019-02-26T04:53:31.384Z,97667.56
2019-02-26T04:55:57.499Z,97670.04
2019-02-26T04:58:34.430Z,97662.63
2019-02-26T05:01:12.959Z,97668.54
2019-02-26T05:03:49.290Z,97677.05
2019-02-26T05:06:21.489Z,97674.38
2019-02-26T05:09:08.086Z,97665.02
2019-02-26T05:11:40.690Z,97656.67
2019-02-26T05:14:20.977Z,97651.38
2019-02-26T05:16:58.743Z,97647.24
2019-02-26T05:22:35.031Z,97636.56
2019-02-26T05:25:07.336Z,97630.97
2019-02-26T05:28:03.792Z,97618.31
2019-02-26T05:30:41.209Z,97620.14
2019-02-26T05:33:22.601Z,97625.25
2019-02-26T05:35:58.667Z,97623.63
2019-02-26T05:45:54.206Z,97641.16
2019-02-26T05:55:08.407Z,97641.70
2019-02-26T05:57:53.134Z,97646.30
2019-02-26T06:03:39.042Z,97654.03
2019-02-26T06:06:32.021Z,97653.24
2019-02-26T06:08:59.987Z,97649.27
2019-02-26T06:11:49.381Z,97642.72
2019-02-26T06:14:16.009Z,97641.22
2019-02-26T06:16:58.824Z,97638.44
2019-02-26T06:19:42.338Z,97645.84
2019-02-26T06:22:17.050Z,97650.45
2019-02-26T06:25:09.563Z,97660.16
2019-02-26T06:27:46.923Z,97656.70
2019-02-26T06:30:38.730Z,97662.45
2019-02-26T06:36:12.587Z,97665.54
2019-02-26T06:39:13.952Z,97662.76
2019-02-26T06:41:46.758Z,97657.16
2019-02-26T06:50:28.459Z,97659.94
2019-02-26T06:53:13.177Z,97660.92
2019-02-26T06:55:43.473Z,97658.63
2019-02-26T06:58:45.015Z,97661.26
2019-02-26T07:01:27.522Z,97670.77
2019-02-26T07:03:58.201Z,97656.11
2019-02-26T07:06:40.401Z,97657.28
2019-02-26T07:09:22.589Z,97667.31
2019-02-26T07:14:34.714Z,97680.66
2019-02-26T07:17:31.604Z,97684.59
2019-02-26T07:20:05.244Z,97680.84
2019-02-26T07:22:35.852Z,97678.91
2019-02-26T07:25:21.980Z,97674.63
2019-02-26T07:28:27.968Z,97675.27
2019-02-26T07:37:16.943Z,97666.48
2019-02-26T07:40:05.746Z,97680.98
2019-02-26T07:42:46.707Z,97683.30
2019-02-26T07:45:27.323Z,97674.11
2019-02-26T07:47:59.092Z,97672.81
2019-02-26T07:51:09.202Z,97674.17
2019-02-26T07:53:49.307Z,97674.03
2019-02-26T07:56:40.674Z,97675.84
2019-02-26T07:59:27.629Z,97678.83
2019-02-26T08:05:02.751Z,97676.86
2019-02-26T08:07:55.786Z,97671.77
2019-02-26T08:10:30.102Z,97673.56
2019-02-26T08:13:11.484Z,97673.06
2019-02-26T08:18:37.434Z,97665.94
2019-02-26T08:21:08.354Z,97671.34
2019-02-26T08:24:03.854Z,97669.53
2019-02-26T08:26:35.098Z,97675.64
2019-02-26T08:29:45.202Z,97673.82
2019-02-26T08:32:18.341Z,97672.66
2019-02-26T08:35:07.525Z,97683.22
2019-02-26T08:37:50.034Z,97676.46
2019-02-26T08:40:36.712Z,97681.88
2019-02-26T08:46:29.348Z,97675.05
2019-02-26T08:49:22.554Z,97665.41
2019-02-26T08:52:01.594Z,97663.71
2019-02-26T08:58:12.510Z,97660.55
2019-02-26T09:06:54.792Z,97666.14
2019-02-26T09:12:29.689Z,97662.20
2019-02-26T09:15:08.483Z,97655.40
2019-02-26T09:17:41.449Z,97655.12
2019-02-26T09:20:49.674Z,97659.16
2019-02-26T09:23:39.365Z,97660.30
2019-02-26T09:28:57.087Z,97649.91
2019-02-26T09:31:52.168Z,97652.39
2019-02-26T09:37:25.323Z,97651.02
2019-02-26T09:39:59.321Z,97641.77
2019-02-26T09:42:57.267Z,97646.46
2019-02-26T09:48:35.802Z,97650.14
2019-02-26T09:51:14.798Z,97645.87
2019-02-26T09:57:00.354Z,97645.73
2019-02-26T10:00:56.968Z,97638.69
2019-02-26T10:03:23.267Z,97641.77
2019-02-26T10:05:56.014Z,97650.85
2019-02-26T10:09:04.088Z,97641.11
2019-02-26T10:11:36.323Z,97642.10
2019-02-26T10:14:18.751Z,97649.45
2019-02-26T10:17:11.127Z,97646.48
2019-02-26T10:19:46.811Z,97646.09
2019-02-26T10:23:00.767Z,97647.03
2019-02-26T10:26:13.423Z,97643.73
2019-02-26T10:28:45.640Z,97642.95
2019-02-26T10:34:30.376Z,97643.58
2019-02-26T10:43:45.079Z,97638.36
2019-02-26T10:49:12.383Z,97647.74
2019-02-26T10:54:46.615Z,97642.88
2019-02-26T10:57:56.001Z,97645.06
2019-02-26T11:07:08.716Z,97649.14
2019-02-26T11:10:03.713Z,97658.13
2019-02-26T11:12:35.888Z,97657.39
2019-02-26T11:21:31.911Z,97649.05
2019-02-26T11:24:23.490Z,97655.79
2019-02-26T11:39:09.980Z,97636.41
2019-02-26T11:42:05.373Z,97636.14
2019-02-26T11:45:14.824Z,97631.69
2019-02-26T11:47:52.171Z,97637.66
2019-02-26T11:53:09.336Z,97623.95
2019-02-26T11:56:02.608Z,97624.38
2019-02-26T11:58:33.502Z,97621.86
2019-02-26T12:01:23.896Z,97621.19
2019-02-26T12:03:56.080Z,97621.91
2019-02-26T12:09:43.287Z,97619.10
2019-02-26T12:12:34.171Z,97621.27
2019-02-26T12:15:33.426Z,97613.40
2019-02-26T12:18:22.772Z,97615.66
2019-02-26T12:24:13.172Z,97610.05
2019-02-26T12:26:45.264Z,97603.09
2019-02-26T12:32:54.928Z,97590.98
2019-02-26T12:35:52.270Z,97589.02
2019-02-26T12:44:12.925Z,97571.37
2019-02-26T12:46:47.812Z,97561.78
2019-02-26T12:55:38.355Z,97546.60
2019-02-26T13:00:57.169Z,97542.67
2019-02-26T13:09:34.320Z,97538.94
2019-02-26T13:12:20.260Z,97536.48
2019-02-26T13:20:16.491Z,97529.75
2019-02-26T13:22:50.096Z,97525.86
2019-02-26T13:25:40.043Z,97518.38
2019-02-26T13:28:12.349Z,97528.05
2019-02-26T13:39:29.947Z,97521.25
2019-02-26T13:42:38.288Z,97526.74
2019-02-26T13:48:24.271Z,97518.11
2019-02-26T13:50:57.967Z,97517.16
2019-02-26T13:56:47.674Z,97512.12
2019-02-26T13:59:39.098Z,97517.91
2019-02-26T14:04:59.868Z,97516.06
2019-02-26T14:07:42.671Z,97516.08
2019-02-26T14:10:33.750Z,97511.73
2019-02-26T14:16:15.193Z,97515.17
2019-02-26T14:18:49.163Z,97515.34
2019-02-26T14:21:31.191Z,97521.83
2019-02-26T14:24:12.697Z,97520.98
2019-02-26T14:29:44.397Z,97518.25
2019-02-26T14:35:24.286Z,97505.05
2019-02-26T14:40:39.929Z,97484.97
2019-02-26T14:46:23.099Z,97492.62
2019-02-26T14:49:00.688Z,97490.45
2019-02-26T14:51:33.535Z,97492.89
2019-02-26T14:54:08.573Z,97486.02
2019-02-26T14:56:39.344Z,97486.36
2019-02-26T14:59:24.723Z,97487.27
2019-02-26T15:05:17.225Z,97482.47
2019-02-26T15:07:47.877Z,97481.31
2019-02-26T15:10:20.422Z,97473.13
2019-02-26T15:13:32.699Z,97472.43
2019-02-26T15:16:33.286Z,97467.70
2019-02-26T15:19:05.686Z,97474.25
2019-02-26T15:34:05.818Z,97468.19
2019-02-26T15:36:45.399Z,97464.59
2019-02-26T15:39:27.739Z,97472.34
2019-02-26T15:45:25.087Z,97483.34
2019-02-26T15:48:21.647Z,97483.11
2019-02-26T15:51:14.313Z,97478.31
2019-02-26T15:54:06.837Z,97485.34
2019-02-26T15:56:39.894Z,97481.61
2019-02-26T15:59:29.806Z,97483.95
2019-02-26T16:02:00.458Z,97482.28
2019-02-26T16:08:10.820Z,97476.77
2019-02-26T16:10:43.338Z,97489.00
2019-02-26T16:13:27.103Z,97492.09
2019-02-26T16:15:57.811Z,97492.86
2019-02-26T16:21:18.468Z,97492.45
2019-02-26T16:28:03.247Z,97498.05
2019-02-26T16:30:45.486Z,97500.33
2019-02-26T16:39:25.502Z,97511.09
2019-02-26T16:45:59.534Z,97515.28
2019-02-26T16:48:53.171Z,97514.38
2019-02-26T16:51:46.793Z,97518.25
2019-02-26T16:57:56.513Z,97515.59
2019-02-26T17:06:33.122Z,97517.94
2019-02-26T17:09:11.359Z,97518.25
2019-02-26T17:12:02.206Z,97516.53
2019-02-26T17:15:13.933Z,97517.34
2019-02-26T17:26:54.063Z,97534.02
2019-02-26T17:29:27.907Z,97536.12
2019-02-26T17:40:57.692Z,97540.00
2019-02-26T17:43:48.041Z,97536.58
2019-02-26T17:46:19.682Z,97534.81
2019-02-26T17:49:06.251Z,97530.70
2019-02-26T17:55:00.539Z,97543.23
2019-02-26T17:57:51.919Z,97535.39
2019-02-26T18:06:45.263Z,97528.94
2019-02-26T18:09:54.063Z,97521.09
2019-02-26T18:12:25.990Z,97516.80
2019-02-26T18:18:43.528Z,97513.61
2019-02-26T18:21:14.930Z,97508.05
2019-02-26T18:24:06.186Z,97500.19
2019-02-26T18:26:56.436Z,97493.72
2019-02-26T18:35:06.074Z,97500.41
2019-02-26T18:40:49.781Z,97500.41
2019-02-26T18:43:33.938Z,97502.36
2019-02-26T18:46:05.547Z,97510.03
2019-02-26T18:48:59.053Z,97513.69
2019-02-26T18:51:30.365Z,97515.69
2019-02-26T19:00:58.343Z,97509.82
2019-02-26T19:09:42.706Z,97501.80
2019-02-26T19:12:19.202Z,97500.77
2019-02-26T19:15:28.450Z,97494.13
2019-02-26T19:18:38.557Z,97496.23
2019-02-26T19:21:10.174Z,97499.89
2019-02-26T19:23:52.556Z,97501.67
2019-02-26T19:26:35.444Z,97502.61
2019-02-26T19:29:10.081Z,97508.67
2019-02-26T19:37:55.921Z,97513.55
2019-02-26T19:40:38.758Z,97509.31
2019-02-26T19:43:52.986Z,97500.82
2019-02-26T19:46:27.134Z,97501.32
2019-02-26T19:49:23.907Z,97506.64
2019-02-26T19:55:15.752Z,97510.27
2019-02-26T19:58:07.585Z,97517.90
2019-02-26T20:01:17.407Z,97514.16
2019-02-26T20:04:08.192Z,97509.92
2019-02-26T20:12:48.491Z,97506.16
2019-02-26T20:15:59.364Z,97502.24
2019-02-26T20:30:55.822Z,97506.44
2019-02-26T20:33:27.202Z,97517.83
2019-02-26T20:35:58.610Z,97506.72
2019-02-26T20:39:10.459Z,97501.31
2019-02-26T20:41:43.407Z,97507.28
2019-02-26T20:44:15.081Z,97504.20
2019-02-26T20:47:10.540Z,97501.41
2019-02-26T20:53:32.088Z,97502.95
2019-02-26T20:56:03.426Z,97500.85
2019-02-26T21:01:25.701Z,97503.16
2019-02-26T21:07:18.610Z,97511.47
2019-02-26T21:16:37.785Z,97501.34
2019-02-26T21:19:09.386Z,97508.43
2019-02-26T21:21:54.104Z,97500.85
2019-02-26T21:27:47.611Z,97505.52
2019-02-26T21:30:41.236Z,97505.35
2019-02-26T21:48:53.101Z,97494.55
2019-02-26T21:51:43.251Z,97486.34
2019-02-26T21:54:14.562Z,97482.38
2019-02-26T21:56:48.667Z,97486.02
2019-02-26T22:02:25.779Z,97488.19
2019-02-26T22:05:15.549Z,97477.02
2019-02-26T22:07:46.472Z,97476.33
2019-02-26T22:10:29.783Z,97479.65
2019-02-26T22:13:13.295Z,97476.52
2019-02-26T22:18:53.084Z,97477.34
2019-02-26T22:21:55.067Z,97476.05
2019-02-26T22:24:40.031Z,97484.28
2019-02-26T22:27:10.041Z,97478.03
2019-02-26T22:30:03.642Z,97477.23
2019-02-26T22:35:59.028Z,97485.95
2019-02-26T22:38:37.201Z,97479.53
2019-02-26T22:44:15.469Z,97482.16
2019-02-26T22:47:24.355Z,97477.41
2019-02-26T22:50:28.062Z,97478.73
2019-02-26T22:53:09.176Z,97477.73
2019-02-26T22:55:49.793Z,97484.19
2019-02-26T22:58:23.619Z,97478.39
2019-02-26T23:01:18.974Z,97473.48
2019-02-26T23:03:51.099Z,97472.48
2019-02-26T23:12:20.864Z,97472.02
2019-02-26T23:15:03.204Z,97469.39
2019-02-26T23:17:46.671Z,97462.31
2019-02-26T23:20:36.671Z,97470.05
2019-02-26T23:26:41.759Z,97468.09
2019-02-26T23:32:18.008Z,97466.28
2019-02-26T23:41:13.336Z,97465.27
2019-02-26T23:43:46.392Z,97457.70
2019-02-26T23:46:36.303Z,97458.38
2019-02-26T23:49:08.493Z,97458.69
2019-02-26T23:51:57.910Z,97456.22
2019-02-26T23:54:50.060Z,97456.91
2019-02-26T23:57:42.206Z,97456.39
